sensor_id;sensor_type;location;lat;lon;timestamp;P1;durP1;ratioP1;P2;durP2;ratioP2
26277;SDS011;14000;52.056;8.510;2023-01-09T00:00:58;8.57;;;2.60;;
26277;SDS011;14000;52.056;8.510;2023-01-09T00:03:24;7.77;;;2.17;;
26277;SDS011;14000;52.056;8.510;2023-01-09T00:05:49;6.50;;;2.13;;
26277;SDS011;14000;52.056;8.510;2023-01-09T00:08:15;8.50;;;2.50;;
26277;SDS011;14000;52.056;8.510;2023-01-09T00:10:41;9.73;;;2.77;;
26277;SDS011;14000;52.056;8.510;2023-01-09T00:13:08;7.60;;;2.30;;
26277;SDS011;14000;52.056;8.510;2023-01-09T00:15:35;8.27;;;2.60;;
26277;SDS011;14000;52.056;8.510;2023-01-09T00:18:03;6.97;;;2.67;;
26277;SDS011;14000;52.056;8.510;2023-01-09T00:20:28;7.93;;;3.00;;
26277;SDS011;14000;52.056;8.510;2023-01-09T00:22:54;8.27;;;2.87;;
26277;SDS011;14000;52.056;8.510;2023-01-09T00:25:19;7.63;;;2.63;;
26277;SDS011;14000;52.056;8.510;2023-01-09T00:27:46;7.90;;;3.10;;
26277;SDS011;14000;52.056;8.510;2023-01-09T00:30:12;11.20;;;3.67;;
26277;SDS011;14000;52.056;8.510;2023-01-09T00:32:38;10.73;;;4.27;;
26277;SDS011;14000;52.056;8.510;2023-01-09T00:35:04;12.23;;;4.17;;
26277;SDS011;14000;52.056;8.510;2023-01-09T00:37:31;10.67;;;4.90;;
26277;SDS011;14000;52.056;8.510;2023-01-09T00:39:57;10.87;;;4.80;;
26277;SDS011;14000;52.056;8.510;2023-01-09T00:42:23;10.73;;;5.10;;
26277;SDS011;14000;52.056;8.510;2023-01-09T00:44:53;13.60;;;5.43;;
26277;SDS011;14000;52.056;8.510;2023-01-09T00:47:27;10.97;;;5.70;;
26277;SDS011;14000;52.056;8.510;2023-01-09T00:49:59;11.67;;;5.83;;
26277;SDS011;14000;52.056;8.510;2023-01-09T00:52:29;11.83;;;5.60;;
26277;SDS011;14000;52.056;8.510;2023-01-09T00:54:57;11.70;;;6.27;;
26277;SDS011;14000;52.056;8.510;2023-01-09T00:57:24;12.57;;;6.00;;
26277;SDS011;14000;52.056;8.510;2023-01-09T00:59:50;12.90;;;6.03;;
26277;SDS011;14000;52.056;8.510;2023-01-09T01:02:16;13.43;;;6.73;;
26277;SDS011;14000;52.056;8.510;2023-01-09T01:04:42;12.43;;;6.20;;
26277;SDS011;14000;52.056;8.510;2023-01-09T01:07:26;13.13;;;6.40;;
26277;SDS011;14000;52.056;8.510;2023-01-09T01:10:04;12.07;;;5.60;;
26277;SDS011;14000;52.056;8.510;2023-01-09T01:12:31;11.33;;;5.90;;
26277;SDS011;14000;52.056;8.510;2023-01-09T01:14:57;11.23;;;5.10;;
26277;SDS011;14000;52.056;8.510;2023-01-09T01:17:22;9.53;;;4.87;;
26277;SDS011;14000;52.056;8.510;2023-01-09T01:19:48;9.30;;;4.80;;
26277;SDS011;14000;52.056;8.510;2023-01-09T01:22:14;10.80;;;4.67;;
26277;SDS011;14000;52.056;8.510;2023-01-09T01:24:39;10.37;;;4.00;;
26277;SDS011;14000;52.056;8.510;2023-01-09T01:27:05;8.87;;;3.83;;
26277;SDS011;14000;52.056;8.510;2023-01-09T01:29:31;8.73;;;3.70;;
26277;SDS011;14000;52.056;8.510;2023-01-09T01:31:56;8.60;;;3.20;;
26277;SDS011;14000;52.056;8.510;2023-01-09T01:34:22;7.67;;;3.17;;
26277;SDS011;14000;52.056;8.510;2023-01-09T01:36:48;7.93;;;3.30;;
26277;SDS011;14000;52.056;8.510;2023-01-09T01:39:13;7.77;;;2.90;;
26277;SDS011;14000;52.056;8.510;2023-01-09T01:41:39;8.43;;;3.00;;
26277;SDS011;14000;52.056;8.510;2023-01-09T01:44:53;6.90;;;2.80;;
26277;SDS011;14000;52.056;8.510;2023-01-09T01:47:09;9.37;;;2.90;;
26277;SDS011;14000;52.056;8.510;2023-01-09T01:49:35;8.60;;;2.90;;
26277;SDS011;14000;52.056;8.510;2023-01-09T01:52:01;10.40;;;2.60;;
26277;SDS011;14000;52.056;8.510;2023-01-09T01:54:27;7.47;;;2.40;;
26277;SDS011;14000;52.056;8.510;2023-01-09T01:56:54;8.03;;;2.23;;
26277;SDS011;14000;52.056;8.510;2023-01-09T01:59:23;7.10;;;2.07;;
26277;SDS011;14000;52.056;8.510;2023-01-09T02:01:53;6.90;;;2.40;;
26277;SDS011;14000;52.056;8.510;2023-01-09T02:04:23;7.47;;;2.60;;
26277;SDS011;14000;52.056;8.510;2023-01-09T02:06:50;7.57;;;2.67;;
26277;SDS011;14000;52.056;8.510;2023-01-09T02:09:18;8.33;;;2.30;;
26277;SDS011;14000;52.056;8.510;2023-01-09T02:11:47;5.70;;;2.10;;
26277;SDS011;14000;52.056;8.510;2023-01-09T02:14:16;6.23;;;2.10;;
26277;SDS011;14000;52.056;8.510;2023-01-09T02:31:09;5.07;;;1.40;;
26277;SDS011;14000;52.056;8.510;2023-01-09T02:33:51;5.40;;;1.70;;
26277;SDS011;14000;52.056;8.510;2023-01-09T02:41:42;6.73;;;1.60;;
26277;SDS011;14000;52.056;8.510;2023-01-09T02:44:22;6.37;;;1.90;;
26277;SDS011;14000;52.056;8.510;2023-01-09T02:47:00;5.93;;;1.70;;
26277;SDS011;14000;52.056;8.510;2023-01-09T02:49:42;7.17;;;2.20;;
26277;SDS011;14000;52.056;8.510;2023-01-09T02:52:12;6.67;;;1.97;;
26277;SDS011;14000;52.056;8.510;2023-01-09T03:00:51;6.17;;;1.87;;
26277;SDS011;14000;52.056;8.510;2023-01-09T03:03:33;6.20;;;2.00;;
26277;SDS011;14000;52.056;8.510;2023-01-09T03:08:57;6.53;;;1.70;;
26277;SDS011;14000;52.056;8.510;2023-01-09T03:11:29;5.57;;;1.80;;
26277;SDS011;14000;52.056;8.510;2023-01-09T03:14:02;8.23;;;2.20;;
26277;SDS011;14000;52.056;8.510;2023-01-09T03:16:34;5.67;;;1.80;;
26277;SDS011;14000;52.056;8.510;2023-01-09T03:19:03;7.40;;;2.00;;
26277;SDS011;14000;52.056;8.510;2023-01-09T03:21:34;6.43;;;2.07;;
26277;SDS011;14000;52.056;8.510;2023-01-09T03:24:01;8.13;;;2.27;;
26277;SDS011;14000;52.056;8.510;2023-01-09T03:26:27;9.23;;;2.60;;
26277;SDS011;14000;52.056;8.510;2023-01-09T03:28:54;7.03;;;1.97;;
26277;SDS011;14000;52.056;8.510;2023-01-09T03:31:20;6.80;;;2.20;;
26277;SDS011;14000;52.056;8.510;2023-01-09T03:33:46;5.90;;;1.90;;
26277;SDS011;14000;52.056;8.510;2023-01-09T03:36:12;7.03;;;2.20;;
26277;SDS011;14000;52.056;8.510;2023-01-09T03:38:39;6.27;;;1.83;;
26277;SDS011;14000;52.056;8.510;2023-01-09T03:41:05;7.60;;;2.30;;
26277;SDS011;14000;52.056;8.510;2023-01-09T03:43:31;6.43;;;2.10;;
26277;SDS011;14000;52.056;8.510;2023-01-09T03:45:57;7.70;;;2.50;;
26277;SDS011;14000;52.056;8.510;2023-01-09T03:48:23;8.40;;;3.20;;
26277;SDS011;14000;52.056;8.510;2023-01-09T03:50:49;14.70;;;3.90;;
26277;SDS011;14000;52.056;8.510;2023-01-09T03:53:15;9.10;;;4.10;;
26277;SDS011;14000;52.056;8.510;2023-01-09T03:55:45;8.63;;;3.93;;
26277;SDS011;14000;52.056;8.510;2023-01-09T03:58:11;10.00;;;4.13;;
26277;SDS011;14000;52.056;8.510;2023-01-09T04:00:38;9.17;;;4.20;;
26277;SDS011;14000;52.056;8.510;2023-01-09T04:03:04;9.30;;;4.50;;
26277;SDS011;14000;52.056;8.510;2023-01-09T04:05:31;10.50;;;5.20;;
26277;SDS011;14000;52.056;8.510;2023-01-09T04:07:56;9.07;;;4.53;;
26277;SDS011;14000;52.056;8.510;2023-01-09T04:10:22;9.13;;;4.17;;
26277;SDS011;14000;52.056;8.510;2023-01-09T04:12:47;11.37;;;4.93;;
26277;SDS011;14000;52.056;8.510;2023-01-09T04:15:13;9.13;;;4.40;;
26277;SDS011;14000;52.056;8.510;2023-01-09T04:17:38;10.50;;;5.47;;
26277;SDS011;14000;52.056;8.510;2023-01-09T04:20:04;13.37;;;6.37;;
26277;SDS011;14000;52.056;8.510;2023-01-09T04:22:30;11.87;;;6.73;;
26277;SDS011;14000;52.056;8.510;2023-01-09T04:24:56;15.03;;;8.63;;
26277;SDS011;14000;52.056;8.510;2023-01-09T04:27:21;13.33;;;8.03;;
26277;SDS011;14000;52.056;8.510;2023-01-09T04:29:47;16.17;;;9.37;;
26277;SDS011;14000;52.056;8.510;2023-01-09T04:32:13;15.50;;;9.10;;
26277;SDS011;14000;52.056;8.510;2023-01-09T04:34:38;17.07;;;9.17;;
26277;SDS011;14000;52.056;8.510;2023-01-09T04:37:04;15.47;;;8.73;;
26277;SDS011;14000;52.056;8.510;2023-01-09T04:39:30;16.93;;;10.03;;
26277;SDS011;14000;52.056;8.510;2023-01-09T04:41:55;16.97;;;9.53;;
26277;SDS011;14000;52.056;8.510;2023-01-09T04:44:21;17.37;;;9.87;;
26277;SDS011;14000;52.056;8.510;2023-01-09T04:46:51;20.63;;;9.30;;
26277;SDS011;14000;52.056;8.510;2023-01-09T04:49:18;20.27;;;9.60;;
26277;SDS011;14000;52.056;8.510;2023-01-09T04:51:44;16.13;;;8.80;;
26277;SDS011;14000;52.056;8.510;2023-01-09T04:54:09;21.40;;;8.93;;
26277;SDS011;14000;52.056;8.510;2023-01-09T04:56:35;20.23;;;9.50;;
26277;SDS011;14000;52.056;8.510;2023-01-09T04:59:02;17.50;;;10.27;;
26277;SDS011;14000;52.056;8.510;2023-01-09T05:01:28;21.03;;;10.40;;
26277;SDS011;14000;52.056;8.510;2023-01-09T05:03:54;23.60;;;11.53;;
26277;SDS011;14000;52.056;8.510;2023-01-09T05:06:20;23.27;;;12.67;;
26277;SDS011;14000;52.056;8.510;2023-01-09T05:08:46;20.37;;;12.60;;
26277;SDS011;14000;52.056;8.510;2023-01-09T05:11:11;20.20;;;12.23;;
26277;SDS011;14000;52.056;8.510;2023-01-09T05:13:37;19.20;;;11.90;;
26277;SDS011;14000;52.056;8.510;2023-01-09T05:16:02;22.03;;;11.70;;
26277;SDS011;14000;52.056;8.510;2023-01-09T05:18:28;19.80;;;11.43;;
26277;SDS011;14000;52.056;8.510;2023-01-09T05:20:54;27.33;;;12.47;;
26277;SDS011;14000;52.056;8.510;2023-01-09T05:23:19;21.33;;;12.47;;
26277;SDS011;14000;52.056;8.510;2023-01-09T05:25:45;23.53;;;15.60;;
26277;SDS011;14000;52.056;8.510;2023-01-09T05:28:11;30.40;;;17.50;;
26277;SDS011;14000;52.056;8.510;2023-01-09T05:30:36;24.23;;;15.03;;
26277;SDS011;14000;52.056;8.510;2023-01-09T05:33:02;28.80;;;16.33;;
26277;SDS011;14000;52.056;8.510;2023-01-09T05:35:27;26.50;;;15.27;;
26277;SDS011;14000;52.056;8.510;2023-01-09T05:37:53;24.23;;;15.60;;
26277;SDS011;14000;52.056;8.510;2023-01-09T05:40:19;26.17;;;15.73;;
26277;SDS011;14000;52.056;8.510;2023-01-09T05:42:45;24.27;;;13.67;;
26277;SDS011;14000;52.056;8.510;2023-01-09T05:45:10;24.23;;;14.27;;
26277;SDS011;14000;52.056;8.510;2023-01-09T05:47:36;26.63;;;15.23;;
26277;SDS011;14000;52.056;8.510;2023-01-09T05:50:02;27.57;;;15.50;;
26277;SDS011;14000;52.056;8.510;2023-01-09T05:52:28;29.03;;;15.47;;
26277;SDS011;14000;52.056;8.510;2023-01-09T05:54:53;27.10;;;14.97;;
26277;SDS011;14000;52.056;8.510;2023-01-09T05:57:19;30.53;;;15.83;;
26277;SDS011;14000;52.056;8.510;2023-01-09T05:59:45;33.97;;;17.80;;
26277;SDS011;14000;52.056;8.510;2023-01-09T06:02:10;32.73;;;16.67;;
26277;SDS011;14000;52.056;8.510;2023-01-09T06:04:36;31.00;;;17.10;;
26277;SDS011;14000;52.056;8.510;2023-01-09T06:07:02;29.33;;;16.43;;
26277;SDS011;14000;52.056;8.510;2023-01-09T06:09:27;29.67;;;16.07;;
26277;SDS011;14000;52.056;8.510;2023-01-09T06:11:54;31.60;;;17.40;;
26277;SDS011;14000;52.056;8.510;2023-01-09T06:14:20;28.57;;;15.00;;
26277;SDS011;14000;52.056;8.510;2023-01-09T06:16:46;26.90;;;15.87;;
26277;SDS011;14000;52.056;8.510;2023-01-09T06:19:12;25.93;;;15.83;;
26277;SDS011;14000;52.056;8.510;2023-01-09T06:21:37;25.73;;;15.20;;
26277;SDS011;14000;52.056;8.510;2023-01-09T06:24:03;25.57;;;15.17;;
26277;SDS011;14000;52.056;8.510;2023-01-09T06:26:29;29.13;;;15.80;;
26277;SDS011;14000;52.056;8.510;2023-01-09T06:28:54;25.23;;;14.63;;
26277;SDS011;14000;52.056;8.510;2023-01-09T06:31:21;29.97;;;16.33;;
26277;SDS011;14000;52.056;8.510;2023-01-09T06:33:47;26.00;;;15.07;;
26277;SDS011;14000;52.056;8.510;2023-01-09T06:36:13;27.80;;;15.93;;
26277;SDS011;14000;52.056;8.510;2023-01-09T06:38:39;30.73;;;15.77;;
26277;SDS011;14000;52.056;8.510;2023-01-09T06:41:05;24.50;;;14.20;;
26277;SDS011;14000;52.056;8.510;2023-01-09T06:43:30;30.50;;;15.80;;
26277;SDS011;14000;52.056;8.510;2023-01-09T06:45:56;26.57;;;13.80;;
26277;SDS011;14000;52.056;8.510;2023-01-09T06:48:22;22.23;;;12.80;;
26277;SDS011;14000;52.056;8.510;2023-01-09T06:50:49;26.30;;;13.43;;
26277;SDS011;14000;52.056;8.510;2023-01-09T06:53:15;26.40;;;13.83;;
26277;SDS011;14000;52.056;8.510;2023-01-09T06:55:41;27.23;;;13.30;;
26277;SDS011;14000;52.056;8.510;2023-01-09T06:58:06;27.43;;;13.63;;
26277;SDS011;14000;52.056;8.510;2023-01-09T07:00:32;26.63;;;13.17;;
26277;SDS011;14000;52.056;8.510;2023-01-09T07:02:57;22.77;;;11.73;;
26277;SDS011;14000;52.056;8.510;2023-01-09T07:05:23;25.93;;;11.07;;
26277;SDS011;14000;52.056;8.510;2023-01-09T07:07:48;23.93;;;10.00;;
26277;SDS011;14000;52.056;8.510;2023-01-09T07:10:14;17.83;;;9.33;;
26277;SDS011;14000;52.056;8.510;2023-01-09T07:12:40;18.60;;;8.17;;
26277;SDS011;14000;52.056;8.510;2023-01-09T07:15:05;16.67;;;8.37;;
26277;SDS011;14000;52.056;8.510;2023-01-09T07:17:31;17.17;;;8.27;;
26277;SDS011;14000;52.056;8.510;2023-01-09T07:19:57;15.60;;;6.70;;
26277;SDS011;14000;52.056;8.510;2023-01-09T07:22:23;14.70;;;6.37;;
26277;SDS011;14000;52.056;8.510;2023-01-09T07:24:49;13.97;;;5.90;;
26277;SDS011;14000;52.056;8.510;2023-01-09T07:27:14;16.93;;;7.00;;
26277;SDS011;14000;52.056;8.510;2023-01-09T07:29:40;18.40;;;6.60;;
26277;SDS011;14000;52.056;8.510;2023-01-09T07:32:06;18.50;;;6.30;;
26277;SDS011;14000;52.056;8.510;2023-01-09T07:34:31;16.90;;;5.67;;
26277;SDS011;14000;52.056;8.510;2023-01-09T07:36:57;16.10;;;5.47;;
26277;SDS011;14000;52.056;8.510;2023-01-09T07:39:22;14.70;;;5.17;;
26277;SDS011;14000;52.056;8.510;2023-01-09T07:41:48;14.83;;;5.30;;
26277;SDS011;14000;52.056;8.510;2023-01-09T07:44:14;14.33;;;5.10;;
26277;SDS011;14000;52.056;8.510;2023-01-09T07:46:40;13.70;;;5.30;;
26277;SDS011;14000;52.056;8.510;2023-01-09T07:49:05;15.03;;;5.33;;
26277;SDS011;14000;52.056;8.510;2023-01-09T07:51:31;19.60;;;5.40;;
26277;SDS011;14000;52.056;8.510;2023-01-09T07:53:57;15.43;;;5.20;;
26277;SDS011;14000;52.056;8.510;2023-01-09T07:56:23;18.37;;;6.10;;
26277;SDS011;14000;52.056;8.510;2023-01-09T07:58:48;18.70;;;7.87;;
26277;SDS011;14000;52.056;8.510;2023-01-09T08:01:14;15.37;;;6.90;;
26277;SDS011;14000;52.056;8.510;2023-01-09T08:03:40;18.57;;;5.50;;
26277;SDS011;14000;52.056;8.510;2023-01-09T08:06:05;12.90;;;4.73;;
26277;SDS011;14000;52.056;8.510;2023-01-09T08:08:31;20.53;;;5.50;;
26277;SDS011;14000;52.056;8.510;2023-01-09T08:10:57;14.27;;;5.13;;
26277;SDS011;14000;52.056;8.510;2023-01-09T08:13:23;14.57;;;5.20;;
26277;SDS011;14000;52.056;8.510;2023-01-09T08:15:48;19.97;;;5.67;;
26277;SDS011;14000;52.056;8.510;2023-01-09T08:18:14;14.40;;;5.27;;
26277;SDS011;14000;52.056;8.510;2023-01-09T08:20:39;16.83;;;6.57;;
26277;SDS011;14000;52.056;8.510;2023-01-09T08:23:05;17.33;;;6.17;;
26277;SDS011;14000;52.056;8.510;2023-01-09T08:25:30;12.37;;;5.30;;
26277;SDS011;14000;52.056;8.510;2023-01-09T08:27:57;18.40;;;5.50;;
26277;SDS011;14000;52.056;8.510;2023-01-09T08:30:22;17.03;;;6.30;;
26277;SDS011;14000;52.056;8.510;2023-01-09T08:32:52;14.67;;;5.80;;
26277;SDS011;14000;52.056;8.510;2023-01-09T08:35:18;16.20;;;5.13;;
26277;SDS011;14000;52.056;8.510;2023-01-09T08:37:45;15.80;;;5.13;;
26277;SDS011;14000;52.056;8.510;2023-01-09T08:40:11;14.70;;;5.37;;
26277;SDS011;14000;52.056;8.510;2023-01-09T08:42:39;17.47;;;6.70;;
26277;SDS011;14000;52.056;8.510;2023-01-09T08:45:24;15.67;;;5.07;;
26277;SDS011;14000;52.056;8.510;2023-01-09T08:48:09;20.00;;;5.30;;
26277;SDS011;14000;52.056;8.510;2023-01-09T08:50:34;15.43;;;5.30;;
26277;SDS011;14000;52.056;8.510;2023-01-09T08:53:00;15.23;;;5.80;;
26277;SDS011;14000;52.056;8.510;2023-01-09T08:55:26;16.90;;;5.50;;
26277;SDS011;14000;52.056;8.510;2023-01-09T08:57:52;16.40;;;5.17;;
26277;SDS011;14000;52.056;8.510;2023-01-09T09:00:19;15.60;;;4.83;;
26277;SDS011;14000;52.056;8.510;2023-01-09T09:02:50;14.20;;;5.17;;
26277;SDS011;14000;52.056;8.510;2023-01-09T09:05:19;12.87;;;4.63;;
26277;SDS011;14000;52.056;8.510;2023-01-09T09:07:46;13.60;;;5.07;;
26277;SDS011;14000;52.056;8.510;2023-01-09T09:10:13;14.50;;;5.50;;
26277;SDS011;14000;52.056;8.510;2023-01-09T09:12:39;13.13;;;4.63;;
26277;SDS011;14000;52.056;8.510;2023-01-09T09:15:05;10.43;;;3.60;;
26277;SDS011;14000;52.056;8.510;2023-01-09T09:17:38;12.10;;;3.83;;
26277;SDS011;14000;52.056;8.510;2023-01-09T09:20:05;11.30;;;3.53;;
26277;SDS011;14000;52.056;8.510;2023-01-09T09:22:31;10.43;;;3.33;;
26277;SDS011;14000;52.056;8.510;2023-01-09T09:24:57;12.53;;;3.70;;
26277;SDS011;14000;52.056;8.510;2023-01-09T09:27:22;12.53;;;3.20;;
26277;SDS011;14000;52.056;8.510;2023-01-09T09:29:48;11.17;;;3.20;;
26277;SDS011;14000;52.056;8.510;2023-01-09T09:32:14;11.73;;;4.03;;
26277;SDS011;14000;52.056;8.510;2023-01-09T09:34:39;15.40;;;6.37;;
26277;SDS011;14000;52.056;8.510;2023-01-09T09:37:05;12.10;;;2.57;;
26277;SDS011;14000;52.056;8.510;2023-01-09T09:39:31;10.90;;;2.57;;
26277;SDS011;14000;52.056;8.510;2023-01-09T09:48:09;15.07;;;2.77;;
26277;SDS011;14000;52.056;8.510;2023-01-09T09:56:04;8.93;;;2.00;;
26277;SDS011;14000;52.056;8.510;2023-01-09T09:58:39;9.27;;;1.93;;
26277;SDS011;14000;52.056;8.510;2023-01-09T10:01:06;9.97;;;1.93;;
26277;SDS011;14000;52.056;8.510;2023-01-09T10:03:35;7.30;;;1.80;;
26277;SDS011;14000;52.056;8.510;2023-01-09T10:06:26;10.17;;;1.90;;
26277;SDS011;14000;52.056;8.510;2023-01-09T10:11:38;11.73;;;1.93;;
26277;SDS011;14000;52.056;8.510;2023-01-09T10:14:09;12.97;;;1.90;;
26277;SDS011;14000;52.056;8.510;2023-01-09T10:24:40;9.83;;;1.80;;
26277;SDS011;14000;52.056;8.510;2023-01-09T10:27:29;13.20;;;2.00;;
26277;SDS011;14000;52.056;8.510;2023-01-09T10:31:19;11.40;;;1.93;;
26277;SDS011;14000;52.056;8.510;2023-01-09T10:38:43;9.07;;;2.47;;
26277;SDS011;14000;52.056;8.510;2023-01-09T10:43:41;10.20;;;2.10;;
26277;SDS011;14000;52.056;8.510;2023-01-09T10:46:29;8.97;;;2.03;;
26277;SDS011;14000;52.056;8.510;2023-01-09T10:49:04;11.73;;;2.50;;
26277;SDS011;14000;52.056;8.510;2023-01-09T10:51:40;10.47;;;2.47;;
26277;SDS011;14000;52.056;8.510;2023-01-09T10:54:21;12.57;;;2.67;;
26277;SDS011;14000;52.056;8.510;2023-01-09T10:56:54;11.13;;;2.33;;
26277;SDS011;14000;52.056;8.510;2023-01-09T10:59:22;11.03;;;2.53;;
26277;SDS011;14000;52.056;8.510;2023-01-09T11:01:48;9.73;;;1.93;;
26277;SDS011;14000;52.056;8.510;2023-01-09T11:04:24;9.20;;;1.87;;
26277;SDS011;14000;52.056;8.510;2023-01-09T11:10:09;9.70;;;2.10;;
26277;SDS011;14000;52.056;8.510;2023-01-09T11:12:37;9.73;;;1.90;;
26277;SDS011;14000;52.056;8.510;2023-01-09T11:17:52;8.37;;;1.63;;
26277;SDS011;14000;52.056;8.510;2023-01-09T11:22:49;9.67;;;1.90;;
26277;SDS011;14000;52.056;8.510;2023-01-09T11:25:25;7.70;;;1.93;;
26277;SDS011;14000;52.056;8.510;2023-01-09T11:30:36;9.83;;;1.97;;
26277;SDS011;14000;52.056;8.510;2023-01-09T11:33:24;8.37;;;1.60;;
26277;SDS011;14000;52.056;8.510;2023-01-09T11:38:20;9.07;;;2.10;;
26277;SDS011;14000;52.056;8.510;2023-01-09T11:40:50;7.13;;;1.83;;
26277;SDS011;14000;52.056;8.510;2023-01-09T11:46:37;8.57;;;1.90;;
26277;SDS011;14000;52.056;8.510;2023-01-09T11:49:26;8.20;;;1.90;;
26277;SDS011;14000;52.056;8.510;2023-01-09T11:52:13;8.73;;;2.00;;
26277;SDS011;14000;52.056;8.510;2023-01-09T11:57:23;8.97;;;1.83;;
26277;SDS011;14000;52.056;8.510;2023-01-09T11:59:49;8.63;;;1.93;;
26277;SDS011;14000;52.056;8.510;2023-01-09T12:02:24;8.57;;;1.93;;
26277;SDS011;14000;52.056;8.510;2023-01-09T12:05:12;10.83;;;2.27;;
26277;SDS011;14000;52.056;8.510;2023-01-09T12:07:59;10.30;;;2.33;;
26277;SDS011;14000;52.056;8.510;2023-01-09T12:10:36;7.67;;;1.93;;
26277;SDS011;14000;52.056;8.510;2023-01-09T12:13:21;7.57;;;1.90;;
26277;SDS011;14000;52.056;8.510;2023-01-09T12:16:23;9.57;;;2.20;;
26277;SDS011;14000;52.056;8.510;2023-01-09T12:19:12;8.43;;;2.20;;
26277;SDS011;14000;52.056;8.510;2023-01-09T12:27:27;14.20;;;2.83;;
26277;SDS011;14000;52.056;8.510;2023-01-09T12:38:34;11.90;;;3.40;;
26277;SDS011;14000;52.056;8.510;2023-01-09T12:41:22;15.40;;;4.87;;
26277;SDS011;14000;52.056;8.510;2023-01-09T12:46:41;12.53;;;4.70;;
26277;SDS011;14000;52.056;8.510;2023-01-09T12:49:38;13.17;;;4.77;;
26277;SDS011;14000;52.056;8.510;2023-01-09T12:52:25;13.20;;;5.10;;
26277;SDS011;14000;52.056;8.510;2023-01-09T12:54:59;13.10;;;4.80;;
26277;SDS011;14000;52.056;8.510;2023-01-09T12:57:30;14.93;;;5.10;;
26277;SDS011;14000;52.056;8.510;2023-01-09T13:00:04;12.20;;;5.33;;
26277;SDS011;14000;52.056;8.510;2023-01-09T13:05:28;12.80;;;4.80;;
26277;SDS011;14000;52.056;8.510;2023-01-09T13:07:59;13.37;;;5.27;;
26277;SDS011;14000;52.056;8.510;2023-01-09T13:13:04;12.03;;;4.47;;
26277;SDS011;14000;52.056;8.510;2023-01-09T13:15:46;11.50;;;4.50;;
26277;SDS011;14000;52.056;8.510;2023-01-09T13:18:25;9.13;;;4.40;;
26277;SDS011;14000;52.056;8.510;2023-01-09T13:20:59;11.17;;;4.13;;
26277;SDS011;14000;52.056;8.510;2023-01-09T13:26:10;9.13;;;4.23;;
26277;SDS011;14000;52.056;8.510;2023-01-09T13:28:46;11.73;;;4.20;;
26277;SDS011;14000;52.056;8.510;2023-01-09T13:34:00;11.50;;;4.03;;
26277;SDS011;14000;52.056;8.510;2023-01-09T13:36:28;14.93;;;4.00;;
26277;SDS011;14000;52.056;8.510;2023-01-09T13:38:57;14.83;;;4.00;;
26277;SDS011;14000;52.056;8.510;2023-01-09T13:41:24;9.37;;;3.23;;
26277;SDS011;14000;52.056;8.510;2023-01-09T13:46:44;12.40;;;3.47;;
26277;SDS011;14000;52.056;8.510;2023-01-09T13:57:25;12.83;;;2.97;;
26277;SDS011;14000;52.056;8.510;2023-01-09T14:05:14;9.83;;;3.07;;
26277;SDS011;14000;52.056;8.510;2023-01-09T14:08:31;13.43;;;2.90;;
26277;SDS011;14000;52.056;8.510;2023-01-09T14:10:48;12.13;;;2.80;;
26277;SDS011;14000;52.056;8.510;2023-01-09T14:15:43;9.63;;;3.00;;
26277;SDS011;14000;52.056;8.510;2023-01-09T14:18:14;10.83;;;3.03;;
26277;SDS011;14000;52.056;8.510;2023-01-09T14:20:44;9.37;;;2.70;;
26277;SDS011;14000;52.056;8.510;2023-01-09T14:23:23;10.70;;;2.80;;
26277;SDS011;14000;52.056;8.510;2023-01-09T14:25:50;12.20;;;3.20;;
26277;SDS011;14000;52.056;8.510;2023-01-09T14:28:18;11.60;;;3.10;;
26277;SDS011;14000;52.056;8.510;2023-01-09T14:38:52;13.20;;;3.70;;
26277;SDS011;14000;52.056;8.510;2023-01-09T14:49:57;13.70;;;5.17;;
26277;SDS011;14000;52.056;8.510;2023-01-09T14:52:36;15.53;;;4.80;;
26277;SDS011;14000;52.056;8.510;2023-01-09T14:55:21;12.70;;;4.60;;
26277;SDS011;14000;52.056;8.510;2023-01-09T14:57:50;11.23;;;4.80;;
26277;SDS011;14000;52.056;8.510;2023-01-09T15:00:19;12.13;;;4.20;;
26277;SDS011;14000;52.056;8.510;2023-01-09T15:02:47;13.60;;;4.43;;
26277;SDS011;14000;52.056;8.510;2023-01-09T15:05:18;13.40;;;5.33;;
26277;SDS011;14000;52.056;8.510;2023-01-09T15:07:55;15.90;;;4.80;;
26277;SDS011;14000;52.056;8.510;2023-01-09T15:10:30;11.93;;;4.53;;
26277;SDS011;14000;52.056;8.510;2023-01-09T15:12:57;15.33;;;4.73;;
26277;SDS011;14000;52.056;8.510;2023-01-09T15:15:25;13.40;;;4.83;;
26277;SDS011;14000;52.056;8.510;2023-01-09T15:17:58;13.07;;;4.70;;
26277;SDS011;14000;52.056;8.510;2023-01-09T15:20:27;16.37;;;4.80;;
26277;SDS011;14000;52.056;8.510;2023-01-09T15:22:56;15.63;;;5.57;;
26277;SDS011;14000;52.056;8.510;2023-01-09T15:25:34;12.20;;;5.30;;
26277;SDS011;14000;52.056;8.510;2023-01-09T15:28:19;14.50;;;5.27;;
26277;SDS011;14000;52.056;8.510;2023-01-09T15:31:02;12.90;;;5.30;;
26277;SDS011;14000;52.056;8.510;2023-01-09T15:33:31;14.03;;;5.60;;
26277;SDS011;14000;52.056;8.510;2023-01-09T15:35:58;10.53;;;5.13;;
26277;SDS011;14000;52.056;8.510;2023-01-09T15:38:27;11.47;;;4.73;;
26277;SDS011;14000;52.056;8.510;2023-01-09T15:41:00;14.70;;;4.90;;
26277;SDS011;14000;52.056;8.510;2023-01-09T15:43:31;14.63;;;5.60;;
26277;SDS011;14000;52.056;8.510;2023-01-09T15:45:58;12.33;;;5.50;;
26277;SDS011;14000;52.056;8.510;2023-01-09T15:48:30;12.87;;;5.53;;
26277;SDS011;14000;52.056;8.510;2023-01-09T15:51:15;13.30;;;5.50;;
26277;SDS011;14000;52.056;8.510;2023-01-09T15:53:42;12.93;;;4.83;;
26277;SDS011;14000;52.056;8.510;2023-01-09T15:58:40;11.67;;;4.20;;
26277;SDS011;14000;52.056;8.510;2023-01-09T16:04:16;10.90;;;4.67;;
26277;SDS011;14000;52.056;8.510;2023-01-09T16:09:16;12.43;;;5.40;;
26277;SDS011;14000;52.056;8.510;2023-01-09T16:11:51;16.07;;;7.10;;
26277;SDS011;14000;52.056;8.510;2023-01-09T16:14:23;16.03;;;6.80;;
26277;SDS011;14000;52.056;8.510;2023-01-09T16:16:58;14.70;;;7.20;;
26277;SDS011;14000;52.056;8.510;2023-01-09T16:24:46;17.80;;;10.20;;
26277;SDS011;14000;52.056;8.510;2023-01-09T16:27:22;21.87;;;10.10;;
26277;SDS011;14000;52.056;8.510;2023-01-09T16:29:49;21.47;;;11.33;;
26277;SDS011;14000;52.056;8.510;2023-01-09T16:32:24;27.77;;;12.83;;
26277;SDS011;14000;52.056;8.510;2023-01-09T16:35:02;19.57;;;10.30;;
26277;SDS011;14000;52.056;8.510;2023-01-09T16:37:38;23.33;;;11.80;;
26277;SDS011;14000;52.056;8.510;2023-01-09T16:42:30;22.40;;;11.80;;
26277;SDS011;14000;52.056;8.510;2023-01-09T16:45:15;25.10;;;11.43;;
26277;SDS011;14000;52.056;8.510;2023-01-09T16:47:41;23.13;;;11.27;;
26277;SDS011;14000;52.056;8.510;2023-01-09T16:50:10;19.90;;;10.33;;
26277;SDS011;14000;52.056;8.510;2023-01-09T16:52:36;18.33;;;9.60;;
26277;SDS011;14000;52.056;8.510;2023-01-09T16:55:02;20.43;;;10.70;;
26277;SDS011;14000;52.056;8.510;2023-01-09T16:57:29;18.90;;;10.70;;
26277;SDS011;14000;52.056;8.510;2023-01-09T16:59:56;18.97;;;9.37;;
26277;SDS011;14000;52.056;8.510;2023-01-09T17:02:24;18.70;;;9.23;;
26277;SDS011;14000;52.056;8.510;2023-01-09T17:04:49;18.80;;;9.80;;
26277;SDS011;14000;52.056;8.510;2023-01-09T17:07:15;17.33;;;8.20;;
26277;SDS011;14000;52.056;8.510;2023-01-09T17:09:43;19.97;;;9.23;;
26277;SDS011;14000;52.056;8.510;2023-01-09T17:12:16;17.70;;;7.80;;
26277;SDS011;14000;52.056;8.510;2023-01-09T17:14:45;20.43;;;8.63;;
26277;SDS011;14000;52.056;8.510;2023-01-09T17:17:11;23.70;;;8.60;;
26277;SDS011;14000;52.056;8.510;2023-01-09T17:19:37;18.13;;;7.70;;
26277;SDS011;14000;52.056;8.510;2023-01-09T17:22:03;14.87;;;6.60;;
26277;SDS011;14000;52.056;8.510;2023-01-09T17:24:29;17.33;;;6.30;;
26277;SDS011;14000;52.056;8.510;2023-01-09T17:27:13;11.53;;;5.40;;